sensor_id;sensor_type;location;lat;lon;timestamp;pressure;altitude;pressure_sealevel;temperature;humidity
17635;BME280;8936;49.010;12.120;2022-12-19T00:02:17;99195.13;;;-3.66;100.00
17635;BME280;8936;49.010;12.120;2022-12-19T00:04:45;99180.13;;;-3.64;100.00
17635;BME280;8936;49.010;12.120;2022-12-19T00:07:11;99165.13;;;-3.62;100.00
17635;BME280;8936;49.010;12.120;2022-12-19T00:09:38;99126.53;;;-3.68;100.00
17635;BME280;8936;49.010;12.120;2022-12-19T00:12:04;99125.06;;;-3.70;100.00
17635;BME280;8936;49.010;12.120;2022-12-19T00:14:30;99152.59;;;-3.49;100.00
17635;BME280;8936;49.010;12.120;2022-12-19T00:16:57;99179.19;;;-3.08;100.00
17635;BME280;8936;49.010;12.120;2022-12-19T00:19:23;99181.53;;;-3.05;100.00
17635;BME280;8936;49.010;12.120;2022-12-19T00:21:50;99168.38;;;-3.13;100.00
17635;BME280;8936;49.010;12.120;2022-12-19T00:24:17;99166.22;;;-3.28;100.00
17635;BME280;8936;49.010;12.120;2022-12-19T00:26:43;99173.03;;;-3.07;100.00
17635;BME280;8936;49.010;12.120;2022-12-19T00:29:10;99168.88;;;-3.00;100.00
17635;BME280;8936;49.010;12.120;2022-12-19T00:31:36;99185.09;;;-2.61;100.00
17635;BME280;8936;49.010;12.120;2022-12-19T00:34:02;99197.16;;;-2.51;100.00
17635;BME280;8936;49.010;12.120;2022-12-19T00:36:29;99201.16;;;-2.56;100.00
17635;BME280;8936;49.010;12.120;2022-12-19T00:38:58;99204.13;;;-2.69;100.00
17635;BME280;8936;49.010;12.120;2022-12-19T00:41:25;99211.06;;;-2.78;100.00
17635;BME280;8936;49.010;12.120;2022-12-19T00:43:52;99205.78;;;-2.68;100.00
17635;BME280;8936;49.010;12.120;2022-12-19T00:46:19;99212.38;;;-2.64;100.00
17635;BME280;8936;49.010;12.120;2022-12-19T00:48:45;99209.31;;;-2.59;100.00
17635;BME280;8936;49.010;12.120;2022-12-19T00:51:13;99201.44;;;-2.77;100.00
17635;BME280;8936;49.010;12.120;2022-12-19T00:53:39;99190.69;;;-2.92;100.00
17635;BME280;8936;49.010;12.120;2022-12-19T00:56:09;99197.16;;;-3.23;100.00
17635;BME280;8936;49.010;12.120;2022-12-19T00:58:35;99191.50;;;-2.91;100.00
17635;BME280;8936;49.010;12.120;2022-12-19T01:01:04;99187.41;;;-2.76;100.00
17635;BME280;8936;49.010;12.120;2022-12-19T01:03:30;99173.94;;;-2.99;100.00
17635;BME280;8936;49.010;12.120;2022-12-19T01:05:57;99170.31;;;-2.88;100.00
17635;BME280;8936;49.010;12.120;2022-12-19T01:08:23;99165.06;;;-3.15;100.00
17635;BME280;8936;49.010;12.120;2022-12-19T01:10:49;99142.66;;;-3.18;100.00
17635;BME280;8936;49.010;12.120;2022-12-19T01:13:17;99134.00;;;-3.18;100.00
17635;BME280;8936;49.010;12.120;2022-12-19T01:15:44;99130.75;;;-3.03;100.00
17635;BME280;8936;49.010;12.120;2022-12-19T01:18:10;99123.84;;;-3.21;100.00
17635;BME280;8936;49.010;12.120;2022-12-19T01:20:37;99114.19;;;-3.11;100.00
17635;BME280;8936;49.010;12.120;2022-12-19T01:23:04;99124.84;;;-3.22;100.00
17635;BME280;8936;49.010;12.120;2022-12-19T01:25:31;99115.66;;;-3.27;100.00
17635;BME280;8936;49.010;12.120;2022-12-19T01:27:57;99121.44;;;-3.33;100.00
17635;BME280;8936;49.010;12.120;2022-12-19T01:30:25;99116.50;;;-3.36;100.00
17635;BME280;8936;49.010;12.120;2022-12-19T01:32:52;99122.03;;;-3.39;100.00
17635;BME280;8936;49.010;12.120;2022-12-19T01:35:18;99134.19;;;-3.47;100.00
17635;BME280;8936;49.010;12.120;2022-12-19T01:37:45;99132.47;;;-3.39;100.00
17635;BME280;8936;49.010;12.120;2022-12-19T01:40:11;99133.63;;;-3.51;100.00
17635;BME280;8936;49.010;12.120;2022-12-19T01:42:38;99136.91;;;-3.49;100.00
17635;BME280;8936;49.010;12.120;2022-12-19T01:45:18;99150.75;;;-3.39;100.00
17635;BME280;8936;49.010;12.120;2022-12-19T01:47:50;99155.03;;;-3.38;100.00
17635;BME280;8936;49.010;12.120;2022-12-19T01:50:18;99160.63;;;-3.33;100.00
17635;BME280;8936;49.010;12.120;2022-12-19T01:52:46;99143.84;;;-3.30;100.00
17635;BME280;8936;49.010;12.120;2022-12-19T01:55:12;99139.94;;;-3.44;100.00
17635;BME280;8936;49.010;12.120;2022-12-19T01:57:39;99134.31;;;-3.49;100.00
17635;BME280;8936;49.010;12.120;2022-12-19T02:00:06;99138.69;;;-3.49;100.00
17635;BME280;8936;49.010;12.120;2022-12-19T02:02:34;99135.84;;;-3.56;100.00
17635;BME280;8936;49.010;12.120;2022-12-19T02:05:04;99123.78;;;-3.57;100.00
17635;BME280;8936;49.010;12.120;2022-12-19T02:07:31;99107.00;;;-3.54;100.00
17635;BME280;8936;49.010;12.120;2022-12-19T02:09:58;99096.97;;;-3.59;100.00
17635;BME280;8936;49.010;12.120;2022-12-19T02:12:24;99079.06;;;-3.71;100.00
17635;BME280;8936;49.010;12.120;2022-12-19T02:14:52;99093.38;;;-3.31;100.00
17635;BME280;8936;49.010;12.120;2022-12-19T02:17:21;99127.66;;;-2.71;100.00
17635;BME280;8936;49.010;12.120;2022-12-19T02:22:39;99084.88;;;-3.33;100.00
17635;BME280;8936;49.010;12.120;2022-12-19T02:25:25;99111.38;;;-3.28;100.00
17635;BME280;8936;49.010;12.120;2022-12-19T02:28:13;99131.75;;;-3.04;100.00
17635;BME280;8936;49.010;12.120;2022-12-19T02:30:51;99122.31;;;-2.97;100.00
17635;BME280;8936;49.010;12.120;2022-12-19T02:33:20;99113.97;;;-3.28;100.00
17635;BME280;8936;49.010;12.120;2022-12-19T02:35:52;99114.09;;;-3.19;100.00
17635;BME280;8936;49.010;12.120;2022-12-19T02:38:23;99108.19;;;-3.21;100.00
17635;BME280;8936;49.010;12.120;2022-12-19T02:40:54;99116.06;;;-3.04;100.00
17635;BME280;8936;49.010;12.120;2022-12-19T02:43:21;99113.97;;;-3.00;100.00
17635;BME280;8936;49.010;12.120;2022-12-19T02:45:50;99121.47;;;-3.15;100.00
17635;BME280;8936;49.010;12.120;2022-12-19T02:48:17;99116.88;;;-3.03;100.00
17635;BME280;8936;49.010;12.120;2022-12-19T02:50:44;99110.78;;;-3.21;100.00
17635;BME280;8936;49.010;12.120;2022-12-19T02:53:11;99138.81;;;-2.08;100.00
17635;BME280;8936;49.010;12.120;2022-12-19T02:55:40;99132.28;;;-2.30;100.00
17635;BME280;8936;49.010;12.120;2022-12-19T02:58:12;99109.66;;;-2.74;100.00
17635;BME280;8936;49.010;12.120;2022-12-19T03:00:46;99118.03;;;-2.70;100.00
17635;BME280;8936;49.010;12.120;2022-12-19T03:03:17;99124.97;;;-2.79;100.00
17635;BME280;8936;49.010;12.120;2022-12-19T03:05:49;99115.84;;;-2.75;100.00
17635;BME280;8936;49.010;12.120;2022-12-19T03:08:20;99118.75;;;-2.78;100.00
17635;BME280;8936;49.010;12.120;2022-12-19T03:10:51;99132.13;;;-2.81;100.00
17635;BME280;8936;49.010;12.120;2022-12-19T03:13:21;99140.44;;;-2.68;100.00
17635;BME280;8936;49.010;12.120;2022-12-19T03:15:48;99136.84;;;-2.49;100.00
17635;BME280;8936;49.010;12.120;2022-12-19T03:18:14;99125.69;;;-2.34;100.00
17635;BME280;8936;49.010;12.120;2022-12-19T03:20:43;99144.34;;;-2.29;100.00
17635;BME280;8936;49.010;12.120;2022-12-19T03:23:11;99133.09;;;-2.47;100.00
17635;BME280;8936;49.010;12.120;2022-12-19T03:25:37;99146.09;;;-2.37;100.00
17635;BME280;8936;49.010;12.120;2022-12-19T03:28:06;99145.78;;;-2.34;100.00
17635;BME280;8936;49.010;12.120;2022-12-19T03:30:35;99153.41;;;-2.41;100.00
17635;BME280;8936;49.010;12.120;2022-12-19T03:33:04;99165.84;;;-1.99;100.00
17635;BME280;8936;49.010;12.120;2022-12-19T03:35:31;99170.00;;;-1.89;100.00
17635;BME280;8936;49.010;12.120;2022-12-19T03:38:01;99172.84;;;-2.08;100.00
17635;BME280;8936;49.010;12.120;2022-12-19T03:40:28;99174.50;;;-1.81;100.00
17635;BME280;8936;49.010;12.120;2022-12-19T03:42:56;99169.41;;;-2.08;100.00
17635;BME280;8936;49.010;12.120;2022-12-19T03:45:36;99152.44;;;-2.40;100.00
17635;BME280;8936;49.010;12.120;2022-12-19T03:48:05;99145.50;;;-2.49;100.00
17635;BME280;8936;49.010;12.120;2022-12-19T03:50:35;99135.78;;;-2.56;100.00
17635;BME280;8936;49.010;12.120;2022-12-19T03:53:08;99137.50;;;-2.30;100.00
17635;BME280;8936;49.010;12.120;2022-12-19T03:55:40;99139.16;;;-2.03;100.00
17635;BME280;8936;49.010;12.120;2022-12-19T03:58:08;99141.81;;;-2.21;100.00
17635;BME280;8936;49.010;12.120;2022-12-19T04:00:37;99134.50;;;-2.35;100.00
17635;BME280;8936;49.010;12.120;2022-12-19T04:03:06;99127.56;;;-2.44;100.00
17635;BME280;8936;49.010;12.120;2022-12-19T04:05:33;99144.16;;;-2.53;100.00
17635;BME280;8936;49.010;12.120;2022-12-19T04:08:02;99143.09;;;-2.60;100.00
17635;BME280;8936;49.010;12.120;2022-12-19T04:10:30;99139.31;;;-2.83;100.00
17635;BME280;8936;49.010;12.120;2022-12-19T04:13:01;99128.53;;;-2.80;100.00
17635;BME280;8936;49.010;12.120;2022-12-19T04:15:30;99125.69;;;-2.69;100.00
17635;BME280;8936;49.010;12.120;2022-12-19T04:17:58;99118.97;;;-2.89;100.00
17635;BME280;8936;49.010;12.120;2022-12-19T04:20:28;99094.16;;;-3.03;100.00
17635;BME280;8936;49.010;12.120;2022-12-19T04:22:57;99100.91;;;-3.00;100.00
17635;BME280;8936;49.010;12.120;2022-12-19T04:25:26;99188.84;;;-1.68;100.00
17635;BME280;8936;49.010;12.120;2022-12-19T04:27:56;99152.88;;;-1.83;100.00
17635;BME280;8936;49.010;12.120;2022-12-19T04:30:23;99201.09;;;-1.68;100.00
17635;BME280;8936;49.010;12.120;2022-12-19T04:32:49;99186.91;;;-1.24;100.00
17635;BME280;8936;49.010;12.120;2022-12-19T04:35:16;99165.19;;;-2.01;100.00
17635;BME280;8936;49.010;12.120;2022-12-19T04:37:43;99159.03;;;-1.92;100.00
17635;BME280;8936;49.010;12.120;2022-12-19T04:40:10;99175.22;;;-1.71;100.00
17635;BME280;8936;49.010;12.120;2022-12-19T04:42:36;99177.84;;;-2.14;100.00
17635;BME280;8936;49.010;12.120;2022-12-19T04:45:05;99210.00;;;-1.79;100.00
17635;BME280;8936;49.010;12.120;2022-12-19T04:47:31;99175.84;;;-2.38;100.00
17635;BME280;8936;49.010;12.120;2022-12-19T04:49:57;99186.44;;;-1.79;100.00
17635;BME280;8936;49.010;12.120;2022-12-19T04:52:24;99192.19;;;-2.19;100.00
17635;BME280;8936;49.010;12.120;2022-12-19T04:54:50;99219.88;;;-1.73;100.00
17635;BME280;8936;49.010;12.120;2022-12-19T04:57:16;99211.03;;;-1.97;100.00
17635;BME280;8936;49.010;12.120;2022-12-19T04:59:43;99199.03;;;-1.31;100.00
17635;BME280;8936;49.010;12.120;2022-12-19T05:02:10;99196.53;;;-2.09;100.00
17635;BME280;8936;49.010;12.120;2022-12-19T05:04:37;99149.47;;;-2.80;100.00
17635;BME280;8936;49.010;12.120;2022-12-19T05:07:03;99131.38;;;-2.56;100.00
17635;BME280;8936;49.010;12.120;2022-12-19T05:09:29;99142.38;;;-2.52;100.00
17635;BME280;8936;49.010;12.120;2022-12-19T05:11:56;99137.81;;;-2.50;100.00
17635;BME280;8936;49.010;12.120;2022-12-19T05:14:22;99112.34;;;-2.23;100.00
17635;BME280;8936;49.010;12.120;2022-12-19T05:16:48;99140.41;;;-1.89;100.00
17635;BME280;8936;49.010;12.120;2022-12-19T05:19:16;99116.88;;;-2.33;100.00
17635;BME280;8936;49.010;12.120;2022-12-19T05:21:42;99131.56;;;-1.88;100.00
17635;BME280;8936;49.010;12.120;2022-12-19T05:24:09;99149.28;;;-2.08;100.00
17635;BME280;8936;49.010;12.120;2022-12-19T05:26:35;99124.78;;;-2.25;100.00
17635;BME280;8936;49.010;12.120;2022-12-19T05:29:02;99146.63;;;-2.34;100.00
17635;BME280;8936;49.010;12.120;2022-12-19T05:31:28;99090.22;;;-2.54;100.00
17635;BME280;8936;49.010;12.120;2022-12-19T05:33:54;99119.50;;;-2.50;100.00
17635;BME280;8936;49.010;12.120;2022-12-19T05:36:22;99085.38;;;-2.66;100.00
17635;BME280;8936;49.010;12.120;2022-12-19T05:38:48;99074.31;;;-2.78;100.00
17635;BME280;8936;49.010;12.120;2022-12-19T05:41:15;99054.75;;;-2.92;100.00
17635;BME280;8936;49.010;12.120;2022-12-19T05:43:42;99035.34;;;-2.89;100.00
17635;BME280;8936;49.010;12.120;2022-12-19T05:46:09;99035.63;;;-2.92;100.00
17635;BME280;8936;49.010;12.120;2022-12-19T05:48:36;99052.06;;;-2.82;100.00
17635;BME280;8936;49.010;12.120;2022-12-19T05:51:03;99030.66;;;-3.03;100.00
17635;BME280;8936;49.010;12.120;2022-12-19T05:56:05;99113.31;;;-1.80;100.00
17635;BME280;8936;49.010;12.120;2022-12-19T05:58:32;99127.91;;;-1.36;100.00
17635;BME280;8936;49.010;12.120;2022-12-19T06:01:01;99089.16;;;-1.92;100.00
17635;BME280;8936;49.010;12.120;2022-12-19T06:03:28;99084.25;;;-2.64;100.00
17635;BME280;8936;49.010;12.120;2022-12-19T06:05:54;99086.41;;;-2.77;100.00
17635;BME280;8936;49.010;12.120;2022-12-19T06:08:20;99101.44;;;-2.61;100.00
17635;BME280;8936;49.010;12.120;2022-12-19T06:10:47;99136.19;;;-1.82;100.00
17635;BME280;8936;49.010;12.120;2022-12-19T06:13:14;99142.03;;;-1.29;100.00
17635;BME280;8936;49.010;12.120;2022-12-19T06:15:40;99189.41;;;-1.14;100.00
17635;BME280;8936;49.010;12.120;2022-12-19T06:18:07;99174.59;;;-0.97;100.00
17635;BME280;8936;49.010;12.120;2022-12-19T06:20:33;99188.06;;;-0.84;100.00
17635;BME280;8936;49.010;12.120;2022-12-19T06:22:59;99184.16;;;-0.72;100.00
17635;BME280;8936;49.010;12.120;2022-12-19T06:25:26;99186.97;;;-0.66;100.00
17635;BME280;8936;49.010;12.120;2022-12-19T06:27:52;99178.47;;;-0.60;100.00
17635;BME280;8936;49.010;12.120;2022-12-19T06:30:20;99168.94;;;-0.61;100.00
17635;BME280;8936;49.010;12.120;2022-12-19T06:32:46;99179.81;;;-0.97;100.00
17635;BME280;8936;49.010;12.120;2022-12-19T06:35:12;99179.25;;;-0.75;100.00
17635;BME280;8936;49.010;12.120;2022-12-19T06:37:39;99164.50;;;-0.68;100.00
17635;BME280;8936;49.010;12.120;2022-12-19T06:40:06;99155.53;;;-1.16;100.00
17635;BME280;8936;49.010;12.120;2022-12-19T06:42:52;99157.09;;;-1.65;100.00
17635;BME280;8936;49.010;12.120;2022-12-19T06:45:17;99156.59;;;-2.11;100.00
17635;BME280;8936;49.010;12.120;2022-12-19T06:47:45;99155.94;;;-2.31;100.00
17635;BME280;8936;49.010;12.120;2022-12-19T06:50:11;99161.06;;;-2.04;100.00
17635;BME280;8936;49.010;12.120;2022-12-19T06:52:38;99172.81;;;-1.65;100.00
17635;BME280;8936;49.010;12.120;2022-12-19T06:55:04;99190.75;;;-1.10;100.00
17635;BME280;8936;49.010;12.120;2022-12-19T06:57:31;99174.75;;;-1.33;100.00
17635;BME280;8936;49.010;12.120;2022-12-19T06:59:57;99181.47;;;-0.96;100.00
17635;BME280;8936;49.010;12.120;2022-12-19T07:02:24;99193.97;;;-0.90;100.00
17635;BME280;8936;49.010;12.120;2022-12-19T07:04:56;99196.19;;;-1.37;100.00
17635;BME280;8936;49.010;12.120;2022-12-19T07:07:24;99179.91;;;-2.00;100.00
17635;BME280;8936;49.010;12.120;2022-12-19T07:09:50;99187.31;;;-1.70;100.00
17635;BME280;8936;49.010;12.120;2022-12-19T07:12:17;99185.69;;;-1.12;100.00
17635;BME280;8936;49.010;12.120;2022-12-19T07:14:43;99174.66;;;-1.83;100.00
17635;BME280;8936;49.010;12.120;2022-12-19T07:17:10;99175.44;;;-2.08;100.00
17635;BME280;8936;49.010;12.120;2022-12-19T07:19:37;99166.88;;;-2.18;100.00
17635;BME280;8936;49.010;12.120;2022-12-19T07:22:05;99144.53;;;-2.48;100.00
17635;BME280;8936;49.010;12.120;2022-12-19T07:24:33;99139.91;;;-2.54;100.00
17635;BME280;8936;49.010;12.120;2022-12-19T07:26:59;99127.34;;;-2.50;100.00
17635;BME280;8936;49.010;12.120;2022-12-19T07:29:26;99144.75;;;-2.59;100.00
17635;BME280;8936;49.010;12.120;2022-12-19T07:31:52;99139.63;;;-2.51;100.00
17635;BME280;8936;49.010;12.120;2022-12-19T07:34:18;99145.44;;;-2.57;100.00
17635;BME280;8936;49.010;12.120;2022-12-19T07:36:45;99143.03;;;-2.50;100.00
17635;BME280;8936;49.010;12.120;2022-12-19T07:39:12;99146.47;;;-2.50;100.00
17635;BME280;8936;49.010;12.120;2022-12-19T07:41:39;99147.38;;;-2.59;100.00
17635;BME280;8936;49.010;12.120;2022-12-19T07:44:05;99155.59;;;-2.54;100.00
17635;BME280;8936;49.010;12.120;2022-12-19T07:46:32;99139.44;;;-2.49;100.00
17635;BME280;8936;49.010;12.120;2022-12-19T07:48:58;99144.88;;;-2.25;100.00
17635;BME280;8936;49.010;12.120;2022-12-19T07:51:25;99166.22;;;-1.69;100.00
17635;BME280;8936;49.010;12.120;2022-12-19T07:53:51;99172.41;;;-1.44;100.00
17635;BME280;8936;49.010;12.120;2022-12-19T07:56:19;99172.91;;;-1.74;100.00
17635;BME280;8936;49.010;12.120;2022-12-19T07:58:45;99166.31;;;-2.04;100.00
17635;BME280;8936;49.010;12.120;2022-12-19T08:01:11;99171.72;;;-1.80;100.00
17635;BME280;8936;49.010;12.120;2022-12-19T08:03:37;99168.50;;;-1.74;100.00
17635;BME280;8936;49.010;12.120;2022-12-19T08:06:05;99188.53;;;-1.65;100.00
17635;BME280;8936;49.010;12.120;2022-12-19T08:08:31;99190.66;;;-1.60;100.00
17635;BME280;8936;49.010;12.120;2022-12-19T08:11:04;99191.69;;;-2.04;100.00
17635;BME280;8936;49.010;12.120;2022-12-19T08:13:32;99198.78;;;-2.14;100.00
17635;BME280;8936;49.010;12.120;2022-12-19T08:15:58;99188.69;;;-2.27;100.00
17635;BME280;8936;49.010;12.120;2022-12-19T08:18:24;99188.84;;;-2.29;100.00
17635;BME280;8936;49.010;12.120;2022-12-19T08:20:51;99175.91;;;-2.30;100.00
17635;BME280;8936;49.010;12.120;2022-12-19T08:23:17;99177.78;;;-2.23;100.00
17635;BME280;8936;49.010;12.120;2022-12-19T08:25:44;99178.69;;;-2.14;100.00
17635;BME280;8936;49.010;12.120;2022-12-19T08:28:10;99181.13;;;-2.12;100.00
17635;BME280;8936;49.010;12.120;2022-12-19T08:30:38;99177.09;;;-2.25;100.00
17635;BME280;8936;49.010;12.120;2022-12-19T08:33:04;99181.38;;;-2.24;100.00
17635;BME280;8936;49.010;12.120;2022-12-19T08:35:31;99173.81;;;-2.27;100.00
17635;BME280;8936;49.010;12.120;2022-12-19T08:37:57;99170.44;;;-2.19;100.00
17635;BME280;8936;49.010;12.120;2022-12-19T08:40:24;99166.81;;;-2.26;100.00
17635;BME280;8936;49.010;12.120;2022-12-19T08:42:50;99165.06;;;-2.17;100.00
17635;BME280;8936;49.010;12.120;2022-12-19T08:45:16;99155.88;;;-2.22;100.00
17635;BME280;8936;49.010;12.120;2022-12-19T08:47:44;99163.59;;;-2.20;100.00
17635;BME280;8936;49.010;12.120;2022-12-19T08:50:10;99152.00;;;-2.17;100.00
17635;BME280;8936;49.010;12.120;2022-12-19T08:52:38;99168.22;;;-2.14;100.00
17635;BME280;8936;49.010;12.120;2022-12-19T08:55:04;99162.50;;;-2.09;100.00
17635;BME280;8936;49.010;12.120;2022-12-19T08:57:31;99164.47;;;-2.11;100.00
17635;BME280;8936;49.010;12.120;2022-12-19T08:59:57;99161.84;;;-2.11;100.00
17635;BME280;8936;49.010;12.120;2022-12-19T09:02:23;99161.22;;;-2.05;100.00
17635;BME280;8936;49.010;12.120;2022-12-19T09:04:51;99165.38;;;-1.95;100.00
17635;BME280;8936;49.010;12.120;2022-12-19T09:07:17;99155.09;;;-1.96;100.00
17635;BME280;8936;49.010;12.120;2022-12-19T09:09:44;99153.44;;;-1.97;100.00
17635;BME280;8936;49.010;12.120;2022-12-19T09:12:10;99149.63;;;-2.03;100.00
17635;BME280;8936;49.010;12.120;2022-12-19T09:14:37;99150.81;;;-1.97;100.00
17635;BME280;8936;49.010;12.120;2022-12-19T09:17:03;99154.16;;;-1.87;100.00
17635;BME280;8936;49.010;12.120;2022-12-19T09:19:30;99154.59;;;-1.92;100.00
17635;BME280;8936;49.010;12.120;2022-12-19T09:21:57;99150.28;;;-1.83;100.00
17635;BME280;8936;49.010;12.120;2022-12-19T09:24:24;99146.09;;;-1.94;100.00
17635;BME280;8936;49.010;12.120;2022-12-19T09:26:50;99143.47;;;-1.94;100.00
17635;BME280;8936;49.010;12.120;2022-12-19T09:29:16;99129.94;;;-1.89;100.00
17635;BME280;8936;49.010;12.120;2022-12-19T09:31:43;99132.59;;;-1.81;100.00
17635;BME280;8936;49.010;12.120;2022-12-19T09:34:09;99131.16;;;-1.76;100.00
17635;BME280;8936;49.010;12.120;2022-12-19T09:36:36;99124.94;;;-1.75;100.00
17635;BME280;8936;49.010;12.120;2022-12-19T09:39:03;99123.16;;;-1.74;100.00
17635;BME280;8936;49.010;12.120;2022-12-19T09:41:32;99111.38;;;-1.70;100.00
17635;BME280;8936;49.010;12.120;2022-12-19T09:44:06;99116.03;;;-1.56;100.00
17635;BME280;8936;49.010;12.120;2022-12-19T09:46:36;99110.81;;;-1.56;100.00
17635;BME280;8936;49.010;12.120;2022-12-19T09:49:09;99108.94;;;-1.64;100.00
17635;BME280;8936;49.010;12.120;2022-12-19T09:51:37;99103.09;;;-1.57;100.00
17635;BME280;8936;49.010;12.120;2022-12-19T09:54:09;99097.69;;;-1.64;100.00
17635;BME280;8936;49.010;12.120;2022-12-19T09:56:37;99099.31;;;-1.63;100.00
17635;BME280;8936;49.010;12.120;2022-12-19T09:59:07;99106.84;;;-1.60;100.00
17635;BME280;8936;49.010;12.120;2022-12-19T10:01:38;99111.00;;;-1.49;100.00
17635;BME280;8936;49.010;12.120;2022-12-19T10:04:11;99101.50;;;-1.42;100.00
17635;BME280;8936;49.010;12.120;2022-12-19T10:06:39;99097.09;;;-1.42;100.00
17635;BME280;8936;49.010;12.120;2022-12-19T10:09:09;99093.19;;;-1.30;100.00
17635;BME280;8936;49.010;12.120;2022-12-19T10:11:41;99098.75;;;-1.41;100.00
17635;BME280;8936;49.010;12.120;2022-12-19T10:14:18;99091.84;;;-1.42;100.00
17635;BME280;8936;49.010;12.120;2022-12-19T10:16:50;99081.25;;;-1.32;100.00
17635;BME280;8936;49.010;12.120;2022-12-19T10:19:18;99088.66;;;-1.28;100.00
17635;BME280;8936;49.010;12.120;2022-12-19T10:21:48;99088.66;;;-1.28;100.00
17635;BME280;8936;49.010;12.120;2022-12-19T10:24:26;99078.03;;;-1.18;100.00
17635;BME280;8936;49.010;12.120;2022-12-19T10:26:55;99096.69;;;-1.13;100.00
17635;BME280;8936;49.010;12.120;2022-12-19T10:29:32;99092.78;;;-1.09;100.00
17635;BME280;8936;49.010;12.120;2022-12-19T10:32:05;99087.72;;;-1.02;100.00
17635;BME280;8936;49.010;12.120;2022-12-19T10:34:34;99090.34;;;-0.94;100.00
17635;BME280;8936;49.010;12.120;2022-12-19T10:37:06;99104.13;;;-0.92;100.00
17635;BME280;8936;49.010;12.120;2022-12-19T10:39:42;99093.75;;;-1.10;100.00
17635;BME280;8936;49.010;12.120;2022-12-19T10:42:13;99102.97;;;-1.06;100.00
17635;BME280;8936;49.010;12.120;2022-12-19T10:44:41;99104.41;;;-1.12;100.00
17635;BME280;8936;49.010;12.120;2022-12-19T10:47:13;99102.78;;;-1.04;100.00
17635;BME280;8936;49.010;12.120;2022-12-19T10:49:40;99103.91;;;-1.15;100.00
17635;BME280;8936;49.010;12.120;2022-12-19T10:52:07;99102.13;;;-1.06;100.00
17635;BME280;8936;49.010;12.120;2022-12-19T10:54:38;99102.00;;;-0.97;100.00
17635;BME280;8936;49.010;12.120;2022-12-19T10:57:17;99109.03;;;-0.89;100.00
17635;BME280;8936;49.010;12.120;2022-12-19T10:59:52;99102.69;;;-0.87;100.00
17635;BME280;8936;49.010;12.120;2022-12-19T11:02:21;99109.91;;;-0.81;100.00
17635;BME280;8936;49.010;12.120;2022-12-19T11:04:52;99102.63;;;-0.95;100.00
17635;BME280;8936;49.010;12.120;2022-12-19T11:07:19;99097.91;;;-0.99;100.00
17635;BME280;8936;49.010;12.120;2022-12-19T11:09:45;99080.50;;;-1.00;100.00
17635;BME280;8936;49.010;12.120;2022-12-19T11:12:13;99074.94;;;-0.97;100.00
17635;BME280;8936;49.010;12.120;2022-12-19T11:14:41;99076.94;;;-0.99;100.00
17635;BME280;8936;49.010;12.120;2022-12-19T11:19:50;99063.50;;;-0.96;100.00
17635;BME280;8936;49.010;12.120;2022-12-19T11:22:18;99052.31;;;-0.98;100.00
17635;BME280;8936;49.010;12.120;2022-12-19T11:24:48;99056.41;;;-0.96;100.00
17635;BME280;8936;49.010;12.120;2022-12-19T11:27:28;99036.59;;;-0.98;100.00
17635;BME280;8936;49.010;12.120;2022-12-19T11:29:56;99035.28;;;-0.86;100.00
17635;BME280;8936;49.010;12.120;2022-12-19T11:32:24;99026.59;;;-0.95;100.00
17635;BME280;8936;49.010;12.120;2022-12-19T11:34:58;99027.75;;;-0.89;100.00
17635;BME280;8936;49.010;12.120;2022-12-19T11:37:26;99030.22;;;-0.88;100.00
17635;BME280;8936;49.010;12.120;2022-12-19T11:39:59;99020.53;;;-0.95;100.00
17635;BME280;8936;49.010;12.120;2022-12-19T11:42:28;99011.56;;;-0.93;100.00
17635;BME280;8936;49.010;12.120;2022-12-19T11:44:59;99012.03;;;-0.97;100.00
17635;BME280;8936;49.010;12.120;2022-12-19T11:47:29;99019.56;;;-0.94;100.00
17635;BME280;8936;49.010;12.120;2022-12-19T11:49:58;98998.75;;;-0.88;100.00
17635;BME280;8936;49.010;12.120;2022-12-19T11:52:33;99005.31;;;-0.84;100.00
17635;BME280;8936;49.010;12.120;2022-12-19T11:55:02;99007.13;;;-0.84;100.00
17635;BME280;8936;49.010;12.120;2022-12-19T11:57:30;98996.13;;;-0.88;100.00
17635;BME280;8936;49.010;12.120;2022-12-19T11:59:58;99000.53;;;-0.80;100.00
17635;BME280;8936;49.010;12.120;2022-12-19T12:02:32;99001.06;;;-0.69;100.00
17635;BME280;8936;49.010;12.120;2022-12-19T12:05:15;99001.53;;;-0.73;100.00
17635;BME280;8936;49.010;12.120;2022-12-19T12:07:48;98997.91;;;-0.64;100.00
17635;BME280;8936;49.010;12.120;2022-12-19T12:10:19;99014.97;;;-0.60;100.00
17635;BME280;8936;49.010;12.120;2022-12-19T12:12:50;99010.56;;;-0.60;100.00
17635;BME280;8936;49.010;12.120;2022-12-19T12:15:26;99023.50;;;-0.50;100.00
17635;BME280;8936;49.010;12.120;2022-12-19T12:17:55;99012.50;;;-0.45;100.00
17635;BME280;8936;49.010;12.120;2022-12-19T12:20:28;99008.72;;;-0.43;100.00
17635;BME280;8936;49.010;12.120;2022-12-19T12:23:02;98997.56;;;-0.45;100.00
17635;BME280;8936;49.010;12.120;2022-12-19T12:25:36;98999.03;;;-0.42;100.00
17635;BME280;8936;49.010;12.120;2022-12-19T12:28:10;98983.28;;;1.42;100.00
17635;BME280;8936;49.010;12.120;2022-12-19T12:30:44;98962.44;;;4.38;100.00
17635;BME280;8936;49.010;12.120;2022-12-19T12:33:16;98952.44;;;5.59;100.00
17635;BME280;8936;49.010;12.120;2022-12-19T12:35:45;98937.63;;;6.22;100.00
17635;BME280;8936;49.010;12.120;2022-12-19T12:38:22;98934.50;;;6.83;100.00
17635;BME280;8936;49.010;12.120;2022-12-19T12:40:54;98944.81;;;7.22;100.00
17635;BME280;8936;49.010;12.120;2022-12-19T12:43:29;98948.63;;;7.57;100.00
17635;BME280;8936;49.010;12.120;2022-12-19T12:46:01;98949.13;;;7.91;100.00
17635;BME280;8936;49.010;12.120;2022-12-19T12:48:30;98939.69;;;8.13;99.03
17635;BME280;8936;49.010;12.120;2022-12-19T12:50:58;98918.47;;;8.43;96.75
17635;BME280;8936;49.010;12.120;2022-12-19T12:53:26;98918.94;;;8.51;95.88
17635;BME280;8936;49.010;12.120;2022-12-19T12:55:55;98922.56;;;8.87;93.84
17635;BME280;8936;49.010;12.120;2022-12-19T12:58:41;98941.94;;;6.68;96.95
17635;BME280;8936;49.010;12.120;2022-12-19T13:01:09;98934.09;;;4.92;100.00
17635;BME280;8936;49.010;12.120;2022-12-19T13:03:38;98918.78;;;8.17;100.00
17635;BME280;8936;49.010;12.120;2022-12-19T13:06:06;98922.22;;;8.83;98.89